sensor_id;sensor_type;location;lat;lon;timestamp;temperature;humidity
44117;DHT22;29781;49.480;8.512;2022-12-31T00:00:58;13.10;99.90
44117;DHT22;29781;49.480;8.512;2022-12-31T00:03:23;13.20;99.90
44117;DHT22;29781;49.480;8.512;2022-12-31T00:05:49;13.20;99.90
44117;DHT22;29781;49.480;8.512;2022-12-31T00:08:15;13.20;99.90
44117;DHT22;29781;49.480;8.512;2022-12-31T00:10:40;13.20;99.90
44117;DHT22;29781;49.480;8.512;2022-12-31T00:13:09;13.20;99.90
44117;DHT22;29781;49.480;8.512;2022-12-31T00:15:36;13.10;99.90
44117;DHT22;29781;49.480;8.512;2022-12-31T00:18:01;13.10;99.90
44117;DHT22;29781;49.480;8.512;2022-12-31T00:20:27;13.00;99.90
44117;DHT22;29781;49.480;8.512;2022-12-31T00:22:53;13.00;99.90
44117;DHT22;29781;49.480;8.512;2022-12-31T00:25:18;13.00;99.90
44117;DHT22;29781;49.480;8.512;2022-12-31T00:27:44;12.90;99.90
44117;DHT22;29781;49.480;8.512;2022-12-31T00:30:09;12.90;99.90
44117;DHT22;29781;49.480;8.512;2022-12-31T00:32:35;12.90;99.90
44117;DHT22;29781;49.480;8.512;2022-12-31T00:35:00;13.00;99.90
44117;DHT22;29781;49.480;8.512;2022-12-31T00:37:26;12.90;99.90
44117;DHT22;29781;49.480;8.512;2022-12-31T00:39:51;12.90;99.90
44117;DHT22;29781;49.480;8.512;2022-12-31T00:42:17;12.90;99.90
44117;DHT22;29781;49.480;8.512;2022-12-31T00:44:42;12.90;99.90
44117;DHT22;29781;49.480;8.512;2022-12-31T00:47:08;12.90;99.90
44117;DHT22;29781;49.480;8.512;2022-12-31T00:49:33;12.90;99.90
44117;DHT22;29781;49.480;8.512;2022-12-31T00:51:59;12.80;99.90
44117;DHT22;29781;49.480;8.512;2022-12-31T00:54:24;12.90;99.90
44117;DHT22;29781;49.480;8.512;2022-12-31T00:56:50;12.90;99.90
44117;DHT22;29781;49.480;8.512;2022-12-31T00:59:15;12.90;99.90
44117;DHT22;29781;49.480;8.512;2022-12-31T01:01:41;12.90;99.90
44117;DHT22;29781;49.480;8.512;2022-12-31T01:04:11;13.00;99.90
44117;DHT22;29781;49.480;8.512;2022-12-31T01:06:37;13.00;99.90
44117;DHT22;29781;49.480;8.512;2022-12-31T01:09:04;13.00;99.90
44117;DHT22;29781;49.480;8.512;2022-12-31T01:11:29;13.00;99.90
44117;DHT22;29781;49.480;8.512;2022-12-31T01:13:59;13.10;99.90
44117;DHT22;29781;49.480;8.512;2022-12-31T01:16:26;13.10;99.90
44117;DHT22;29781;49.480;8.512;2022-12-31T01:18:52;13.20;99.90
44117;DHT22;29781;49.480;8.512;2022-12-31T01:21:18;13.20;99.90
44117;DHT22;29781;49.480;8.512;2022-12-31T01:23:43;13.20;99.90
44117;DHT22;29781;49.480;8.512;2022-12-31T01:26:10;13.20;99.90
44117;DHT22;29781;49.480;8.512;2022-12-31T01:28:35;13.30;99.90
44117;DHT22;29781;49.480;8.512;2022-12-31T01:31:05;13.30;99.90
44117;DHT22;29781;49.480;8.512;2022-12-31T01:33:31;13.30;99.90
44117;DHT22;29781;49.480;8.512;2022-12-31T01:36:04;13.40;99.90
44117;DHT22;29781;49.480;8.512;2022-12-31T01:38:29;13.40;99.90
44117;DHT22;29781;49.480;8.512;2022-12-31T01:40:55;13.40;99.90
44117;DHT22;29781;49.480;8.512;2022-12-31T01:43:21;13.50;99.90
44117;DHT22;29781;49.480;8.512;2022-12-31T01:45:47;13.50;99.90
44117;DHT22;29781;49.480;8.512;2022-12-31T01:48:14;13.50;99.90
44117;DHT22;29781;49.480;8.512;2022-12-31T01:50:41;13.50;99.90
44117;DHT22;29781;49.480;8.512;2022-12-31T01:53:07;13.50;99.90
44117;DHT22;29781;49.480;8.512;2022-12-31T01:55:35;13.60;99.90
44117;DHT22;29781;49.480;8.512;2022-12-31T01:58:09;13.60;99.90
44117;DHT22;29781;49.480;8.512;2022-12-31T02:00:36;13.60;99.90
44117;DHT22;29781;49.480;8.512;2022-12-31T02:03:02;13.60;99.90
44117;DHT22;29781;49.480;8.512;2022-12-31T02:05:31;13.60;99.90
44117;DHT22;29781;49.480;8.512;2022-12-31T02:07:57;13.60;99.90
44117;DHT22;29781;49.480;8.512;2022-12-31T02:10:23;13.60;99.90
44117;DHT22;29781;49.480;8.512;2022-12-31T02:12:48;13.60;99.90
44117;DHT22;29781;49.480;8.512;2022-12-31T02:15:14;13.60;99.90
44117;DHT22;29781;49.480;8.512;2022-12-31T02:17:55;13.70;99.90
44117;DHT22;29781;49.480;8.512;2022-12-31T02:30:16;13.70;99.90
44117;DHT22;29781;49.480;8.512;2022-12-31T02:35:32;13.70;99.90
44117;DHT22;29781;49.480;8.512;2022-12-31T02:38:00;13.70;99.90
44117;DHT22;29781;49.480;8.512;2022-12-31T02:40:27;13.70;99.90
44117;DHT22;29781;49.480;8.512;2022-12-31T02:42:52;13.80;99.90
44117;DHT22;29781;49.480;8.512;2022-12-31T02:45:19;13.70;99.90
44117;DHT22;29781;49.480;8.512;2022-12-31T02:50:43;13.90;99.90
44117;DHT22;29781;49.480;8.512;2022-12-31T02:58:41;14.00;99.90
44117;DHT22;29781;49.480;8.512;2022-12-31T03:01:33;14.00;99.90
44117;DHT22;29781;49.480;8.512;2022-12-31T03:04:18;14.00;99.90
44117;DHT22;29781;49.480;8.512;2022-12-31T03:06:56;14.00;99.90
44117;DHT22;29781;49.480;8.512;2022-12-31T03:09:24;14.00;99.90
44117;DHT22;29781;49.480;8.512;2022-12-31T03:11:49;14.00;99.90
44117;DHT22;29781;49.480;8.512;2022-12-31T03:14:33;14.10;99.90
44117;DHT22;29781;49.480;8.512;2022-12-31T03:16:59;14.10;99.90
44117;DHT22;29781;49.480;8.512;2022-12-31T03:19:24;14.20;99.90
44117;DHT22;29781;49.480;8.512;2022-12-31T03:22:10;14.20;99.90
44117;DHT22;29781;49.480;8.512;2022-12-31T03:24:55;14.20;99.90
44117;DHT22;29781;49.480;8.512;2022-12-31T03:27:39;14.20;99.90
44117;DHT22;29781;49.480;8.512;2022-12-31T03:30:05;14.20;99.90
44117;DHT22;29781;49.480;8.512;2022-12-31T03:32:31;14.20;99.90
44117;DHT22;29781;49.480;8.512;2022-12-31T03:34:56;14.10;99.90
44117;DHT22;29781;49.480;8.512;2022-12-31T03:37:22;14.20;99.90
44117;DHT22;29781;49.480;8.512;2022-12-31T03:39:47;14.10;99.90
44117;DHT22;29781;49.480;8.512;2022-12-31T03:42:13;14.10;99.90
44117;DHT22;29781;49.480;8.512;2022-12-31T03:44:38;14.20;99.90
44117;DHT22;29781;49.480;8.512;2022-12-31T03:47:04;14.10;99.90
44117;DHT22;29781;49.480;8.512;2022-12-31T03:49:29;14.10;99.90
44117;DHT22;29781;49.480;8.512;2022-12-31T03:51:55;14.10;99.90
44117;DHT22;29781;49.480;8.512;2022-12-31T03:54:20;14.10;99.90
44117;DHT22;29781;49.480;8.512;2022-12-31T03:56:46;14.10;99.90
44117;DHT22;29781;49.480;8.512;2022-12-31T03:59:11;14.10;99.90
44117;DHT22;29781;49.480;8.512;2022-12-31T04:01:37;14.10;99.90
44117;DHT22;29781;49.480;8.512;2022-12-31T04:04:02;14.20;99.90
44117;DHT22;29781;49.480;8.512;2022-12-31T04:06:28;14.20;99.90
44117;DHT22;29781;49.480;8.512;2022-12-31T04:08:53;14.20;99.90
44117;DHT22;29781;49.480;8.512;2022-12-31T04:11:19;14.20;99.90
44117;DHT22;29781;49.480;8.512;2022-12-31T04:13:44;14.20;99.90
44117;DHT22;29781;49.480;8.512;2022-12-31T04:16:10;14.20;99.90
44117;DHT22;29781;49.480;8.512;2022-12-31T04:18:35;14.20;99.90
44117;DHT22;29781;49.480;8.512;2022-12-31T04:21:01;14.20;99.90
44117;DHT22;29781;49.480;8.512;2022-12-31T04:23:27;14.20;99.90
44117;DHT22;29781;49.480;8.512;2022-12-31T04:25:52;14.30;99.90
44117;DHT22;29781;49.480;8.512;2022-12-31T04:28:18;14.30;99.90
44117;DHT22;29781;49.480;8.512;2022-12-31T04:30:43;14.30;99.90
44117;DHT22;29781;49.480;8.512;2022-12-31T04:33:09;14.30;99.90
44117;DHT22;29781;49.480;8.512;2022-12-31T04:35:34;14.40;99.90
44117;DHT22;29781;49.480;8.512;2022-12-31T04:38:00;14.40;99.90
44117;DHT22;29781;49.480;8.512;2022-12-31T04:40:25;14.50;99.90
44117;DHT22;29781;49.480;8.512;2022-12-31T04:42:51;14.50;99.90
44117;DHT22;29781;49.480;8.512;2022-12-31T04:45:16;14.50;99.90
44117;DHT22;29781;49.480;8.512;2022-12-31T04:47:42;14.60;99.90
44117;DHT22;29781;49.480;8.512;2022-12-31T04:50:07;14.70;99.90
44117;DHT22;29781;49.480;8.512;2022-12-31T04:52:33;14.80;99.90
44117;DHT22;29781;49.480;8.512;2022-12-31T04:54:58;15.00;99.90
44117;DHT22;29781;49.480;8.512;2022-12-31T04:57:24;15.00;99.90
44117;DHT22;29781;49.480;8.512;2022-12-31T04:59:49;15.10;99.90
44117;DHT22;29781;49.480;8.512;2022-12-31T05:02:15;15.10;99.90
44117;DHT22;29781;49.480;8.512;2022-12-31T05:04:40;15.10;99.90
44117;DHT22;29781;49.480;8.512;2022-12-31T05:07:06;15.20;99.90
44117;DHT22;29781;49.480;8.512;2022-12-31T05:09:31;15.20;99.90
44117;DHT22;29781;49.480;8.512;2022-12-31T05:11:57;15.20;99.90
44117;DHT22;29781;49.480;8.512;2022-12-31T05:14:22;15.20;99.90
44117;DHT22;29781;49.480;8.512;2022-12-31T05:16:48;15.30;99.90
44117;DHT22;29781;49.480;8.512;2022-12-31T05:19:13;15.30;99.90
44117;DHT22;29781;49.480;8.512;2022-12-31T05:21:39;15.40;99.90
44117;DHT22;29781;49.480;8.512;2022-12-31T05:24:04;15.40;99.90
44117;DHT22;29781;49.480;8.512;2022-12-31T05:26:30;15.40;99.90
44117;DHT22;29781;49.480;8.512;2022-12-31T05:28:55;15.40;99.90
44117;DHT22;29781;49.480;8.512;2022-12-31T05:31:21;15.40;99.90
44117;DHT22;29781;49.480;8.512;2022-12-31T05:33:47;15.30;99.90
44117;DHT22;29781;49.480;8.512;2022-12-31T05:36:12;15.40;99.90
44117;DHT22;29781;49.480;8.512;2022-12-31T05:38:38;15.30;99.90
44117;DHT22;29781;49.480;8.512;2022-12-31T05:41:06;15.30;99.90
44117;DHT22;29781;49.480;8.512;2022-12-31T05:43:31;15.30;99.90
44117;DHT22;29781;49.480;8.512;2022-12-31T05:46:00;15.40;99.90
44117;DHT22;29781;49.480;8.512;2022-12-31T05:48:26;15.30;99.90
44117;DHT22;29781;49.480;8.512;2022-12-31T05:50:52;15.40;99.90
44117;DHT22;29781;49.480;8.512;2022-12-31T05:53:18;15.40;99.90
44117;DHT22;29781;49.480;8.512;2022-12-31T05:55:44;15.50;99.90
44117;DHT22;29781;49.480;8.512;2022-12-31T05:58:09;15.40;99.90
44117;DHT22;29781;49.480;8.512;2022-12-31T06:00:35;15.40;99.90
44117;DHT22;29781;49.480;8.512;2022-12-31T06:03:00;15.40;99.90
44117;DHT22;29781;49.480;8.512;2022-12-31T06:05:26;15.40;99.90
44117;DHT22;29781;49.480;8.512;2022-12-31T06:07:51;15.50;99.90
44117;DHT22;29781;49.480;8.512;2022-12-31T06:10:17;15.50;99.90
44117;DHT22;29781;49.480;8.512;2022-12-31T06:12:42;15.50;99.90
44117;DHT22;29781;49.480;8.512;2022-12-31T06:15:08;15.50;99.90
44117;DHT22;29781;49.480;8.512;2022-12-31T06:17:34;15.60;99.90
44117;DHT22;29781;49.480;8.512;2022-12-31T06:19:59;15.50;99.90
44117;DHT22;29781;49.480;8.512;2022-12-31T06:22:25;15.50;99.90
44117;DHT22;29781;49.480;8.512;2022-12-31T06:24:50;15.50;99.90
44117;DHT22;29781;49.480;8.512;2022-12-31T06:27:16;15.50;99.90
44117;DHT22;29781;49.480;8.512;2022-12-31T06:29:41;15.50;99.90
44117;DHT22;29781;49.480;8.512;2022-12-31T06:32:07;15.50;99.90
44117;DHT22;29781;49.480;8.512;2022-12-31T06:34:33;15.40;99.90
44117;DHT22;29781;49.480;8.512;2022-12-31T06:36:58;15.40;99.90
44117;DHT22;29781;49.480;8.512;2022-12-31T06:39:24;15.40;99.90
44117;DHT22;29781;49.480;8.512;2022-12-31T06:41:50;15.40;99.90
44117;DHT22;29781;49.480;8.512;2022-12-31T06:44:15;15.40;99.90
44117;DHT22;29781;49.480;8.512;2022-12-31T06:46:40;15.40;99.90
44117;DHT22;29781;49.480;8.512;2022-12-31T06:49:06;15.40;99.90
44117;DHT22;29781;49.480;8.512;2022-12-31T06:51:32;15.40;99.90
44117;DHT22;29781;49.480;8.512;2022-12-31T06:53:57;15.40;99.90
44117;DHT22;29781;49.480;8.512;2022-12-31T06:56:24;15.30;99.90
44117;DHT22;29781;49.480;8.512;2022-12-31T06:58:50;15.30;99.90
44117;DHT22;29781;49.480;8.512;2022-12-31T07:06:32;15.20;99.90
44117;DHT22;29781;49.480;8.512;2022-12-31T07:09:09;15.20;99.90
44117;DHT22;29781;49.480;8.512;2022-12-31T07:11:46;15.30;99.90
44117;DHT22;29781;49.480;8.512;2022-12-31T07:14:22;15.30;99.90
44117;DHT22;29781;49.480;8.512;2022-12-31T07:21:57;15.40;99.90
44117;DHT22;29781;49.480;8.512;2022-12-31T07:24:23;15.30;99.90
44117;DHT22;29781;49.480;8.512;2022-12-31T07:34:43;15.30;99.90
44117;DHT22;29781;49.480;8.512;2022-12-31T07:37:21;15.40;99.90
44117;DHT22;29781;49.480;8.512;2022-12-31T07:39:58;15.30;99.90
44117;DHT22;29781;49.480;8.512;2022-12-31T07:42:31;15.30;99.90
44117;DHT22;29781;49.480;8.512;2022-12-31T07:47:44;15.30;99.90
44117;DHT22;29781;49.480;8.512;2022-12-31T07:50:14;15.30;99.90
44117;DHT22;29781;49.480;8.512;2022-12-31T07:52:40;15.30;99.90
44117;DHT22;29781;49.480;8.512;2022-12-31T07:55:05;15.30;99.90
44117;DHT22;29781;49.480;8.512;2022-12-31T07:57:32;15.40;99.90
44117;DHT22;29781;49.480;8.512;2022-12-31T08:00:07;15.40;99.90
44117;DHT22;29781;49.480;8.512;2022-12-31T08:05:17;15.40;99.90
44117;DHT22;29781;49.480;8.512;2022-12-31T08:12:38;15.40;99.90
44117;DHT22;29781;49.480;8.512;2022-12-31T08:15:15;15.40;99.90
44117;DHT22;29781;49.480;8.512;2022-12-31T08:17:41;15.40;99.90
44117;DHT22;29781;49.480;8.512;2022-12-31T08:20:10;15.40;99.90
44117;DHT22;29781;49.480;8.512;2022-12-31T08:28:01;15.30;99.90
44117;DHT22;29781;49.480;8.512;2022-12-31T08:30:39;15.30;99.90
44117;DHT22;29781;49.480;8.512;2022-12-31T08:33:12;15.40;99.90
44117;DHT22;29781;49.480;8.512;2022-12-31T08:35:54;15.40;99.90
44117;DHT22;29781;49.480;8.512;2022-12-31T08:43:25;15.40;99.90
44117;DHT22;29781;49.480;8.512;2022-12-31T08:45:54;15.50;99.90
44117;DHT22;29781;49.480;8.512;2022-12-31T08:50:52;15.60;99.90
44117;DHT22;29781;49.480;8.512;2022-12-31T08:53:18;15.60;99.90
44117;DHT22;29781;49.480;8.512;2022-12-31T08:55:44;15.70;99.90
44117;DHT22;29781;49.480;8.512;2022-12-31T08:58:28;15.60;99.90
44117;DHT22;29781;49.480;8.512;2022-12-31T09:00:58;15.60;99.90
44117;DHT22;29781;49.480;8.512;2022-12-31T09:08:28;15.70;99.90
44117;DHT22;29781;49.480;8.512;2022-12-31T09:10:58;15.70;99.90
44117;DHT22;29781;49.480;8.512;2022-12-31T09:13:40;15.80;99.90
44117;DHT22;29781;49.480;8.512;2022-12-31T09:16:16;15.80;99.90
44117;DHT22;29781;49.480;8.512;2022-12-31T09:18:43;15.80;99.90
44117;DHT22;29781;49.480;8.512;2022-12-31T09:21:09;15.80;99.90
44117;DHT22;29781;49.480;8.512;2022-12-31T09:23:35;15.80;99.90
44117;DHT22;29781;49.480;8.512;2022-12-31T09:31:15;15.80;99.90
44117;DHT22;29781;49.480;8.512;2022-12-31T09:33:45;15.90;99.90
44117;DHT22;29781;49.480;8.512;2022-12-31T09:36:38;16.00;99.90
44117;DHT22;29781;49.480;8.512;2022-12-31T09:39:05;16.00;99.90
44117;DHT22;29781;49.480;8.512;2022-12-31T09:47:20;16.10;99.90
44117;DHT22;29781;49.480;8.512;2022-12-31T09:52:48;16.10;99.90
44117;DHT22;29781;49.480;8.512;2022-12-31T10:08:35;16.20;99.90
44117;DHT22;29781;49.480;8.512;2022-12-31T10:13:42;16.20;99.90
44117;DHT22;29781;49.480;8.512;2022-12-31T10:24:16;16.50;99.90
44117;DHT22;29781;49.480;8.512;2022-12-31T10:37:28;17.10;99.90
44117;DHT22;29781;49.480;8.512;2022-12-31T11:00:56;17.70;99.90
44117;DHT22;29781;49.480;8.512;2022-12-31T11:08:42;17.90;99.90
44117;DHT22;29781;49.480;8.512;2022-12-31T11:11:35;18.00;99.90
44117;DHT22;29781;49.480;8.512;2022-12-31T11:14:23;18.20;99.90
44117;DHT22;29781;49.480;8.512;2022-12-31T11:20:00;18.30;99.90
44117;DHT22;29781;49.480;8.512;2022-12-31T11:38:03;18.40;99.90
44117;DHT22;29781;49.480;8.512;2022-12-31T11:43:23;18.40;99.90
44117;DHT22;29781;49.480;8.512;2022-12-31T11:46:39;18.40;99.90
44117;DHT22;29781;49.480;8.512;2022-12-31T11:56:43;18.40;99.90
44117;DHT22;29781;49.480;8.512;2022-12-31T11:59:11;18.40;99.90
44117;DHT22;29781;49.480;8.512;2022-12-31T12:04:15;18.50;99.90
44117;DHT22;29781;49.480;8.512;2022-12-31T12:06:40;18.50;99.90
44117;DHT22;29781;49.480;8.512;2022-12-31T12:09:14;18.50;99.90
44117;DHT22;29781;49.480;8.512;2022-12-31T12:11:42;18.50;99.90
44117;DHT22;29781;49.480;8.512;2022-12-31T12:14:30;18.70;99.90
44117;DHT22;29781;49.480;8.512;2022-12-31T12:16:56;19.10;99.90
44117;DHT22;29781;49.480;8.512;2022-12-31T12:19:22;19.40;99.90
44117;DHT22;29781;49.480;8.512;2022-12-31T12:21:48;19.40;99.90
44117;DHT22;29781;49.480;8.512;2022-12-31T12:24:24;19.50;99.90
44117;DHT22;29781;49.480;8.512;2022-12-31T12:26:49;19.80;99.90
44117;DHT22;29781;49.480;8.512;2022-12-31T12:29:19;19.90;99.90
44117;DHT22;29781;49.480;8.512;2022-12-31T12:34:21;20.30;99.90
44117;DHT22;29781;49.480;8.512;2022-12-31T12:36:47;20.40;99.90
44117;DHT22;29781;49.480;8.512;2022-12-31T12:39:22;20.30;99.90
44117;DHT22;29781;49.480;8.512;2022-12-31T12:41:58;20.00;99.90
44117;DHT22;29781;49.480;8.512;2022-12-31T12:44:24;19.80;99.90
44117;DHT22;29781;49.480;8.512;2022-12-31T12:46:50;19.70;99.90
44117;DHT22;29781;49.480;8.512;2022-12-31T12:49:21;19.50;99.90
44117;DHT22;29781;49.480;8.512;2022-12-31T12:57:33;19.10;99.90
44117;DHT22;29781;49.480;8.512;2022-12-31T13:00:04;19.10;99.90
44117;DHT22;29781;49.480;8.512;2022-12-31T13:05:19;19.10;99.90
44117;DHT22;29781;49.480;8.512;2022-12-31T13:15:46;19.10;99.90
44117;DHT22;29781;49.480;8.512;2022-12-31T13:23:13;19.10;99.90
44117;DHT22;29781;49.480;8.512;2022-12-31T13:28:10;19.00;99.90
44117;DHT22;29781;49.480;8.512;2022-12-31T13:30:38;19.00;99.90
44117;DHT22;29781;49.480;8.512;2022-12-31T13:33:06;18.90;99.90
44117;DHT22;29781;49.480;8.512;2022-12-31T13:35:46;18.80;99.90
44117;DHT22;29781;49.480;8.512;2022-12-31T13:40:52;18.80;99.90
44117;DHT22;29781;49.480;8.512;2022-12-31T13:46:00;18.70;99.90
44117;DHT22;29781;49.480;8.512;2022-12-31T13:48:36;18.60;99.90
44117;DHT22;29781;49.480;8.512;2022-12-31T13:51:06;18.60;99.90
44117;DHT22;29781;49.480;8.512;2022-12-31T13:53:34;18.60;99.90
44117;DHT22;29781;49.480;8.512;2022-12-31T13:56:20;18.60;99.90
44117;DHT22;29781;49.480;8.512;2022-12-31T13:59:12;18.50;99.90
44117;DHT22;29781;49.480;8.512;2022-12-31T14:01:38;18.50;99.90
44117;DHT22;29781;49.480;8.512;2022-12-31T14:04:14;18.50;99.90
44117;DHT22;29781;49.480;8.512;2022-12-31T14:09:21;18.40;99.90
44117;DHT22;29781;49.480;8.512;2022-12-31T14:11:59;18.40;99.90
44117;DHT22;29781;49.480;8.512;2022-12-31T14:14:35;18.40;99.90
44117;DHT22;29781;49.480;8.512;2022-12-31T14:22:05;18.30;99.90
44117;DHT22;29781;49.480;8.512;2022-12-31T14:27:02;18.30;99.90
44117;DHT22;29781;49.480;8.512;2022-12-31T14:29:42;18.30;99.90
44117;DHT22;29781;49.480;8.512;2022-12-31T14:32:16;18.30;99.90
44117;DHT22;29781;49.480;8.512;2022-12-31T14:37:14;18.20;99.90
44117;DHT22;29781;49.480;8.512;2022-12-31T14:39:44;18.30;99.90
44117;DHT22;29781;49.480;8.512;2022-12-31T14:45:14;18.10;99.90
44117;DHT22;29781;49.480;8.512;2022-12-31T14:50:19;18.10;99.90
44117;DHT22;29781;49.480;8.512;2022-12-31T14:57:40;18.10;99.90
44117;DHT22;29781;49.480;8.512;2022-12-31T15:02:55;17.90;99.90
44117;DHT22;29781;49.480;8.512;2022-12-31T15:05:22;17.90;99.90
44117;DHT22;29781;49.480;8.512;2022-12-31T15:23:01;17.50;99.90
44117;DHT22;29781;49.480;8.512;2022-12-31T15:25:31;17.60;99.90
44117;DHT22;29781;49.480;8.512;2022-12-31T15:27:58;17.50;99.90
44117;DHT22;29781;49.480;8.512;2022-12-31T15:32:53;17.30;99.90
44117;DHT22;29781;49.480;8.512;2022-12-31T15:37:44;17.20;99.90
44117;DHT22;29781;49.480;8.512;2022-12-31T15:40:20;17.20;99.90
44117;DHT22;29781;49.480;8.512;2022-12-31T15:42:53;17.20;99.90
44117;DHT22;29781;49.480;8.512;2022-12-31T15:45:25;17.20;99.90
44117;DHT22;29781;49.480;8.512;2022-12-31T15:47:54;17.20;99.90
44117;DHT22;29781;49.480;8.512;2022-12-31T15:50:20;17.10;99.90
44117;DHT22;29781;49.480;8.512;2022-12-31T15:55:23;17.00;99.90
44117;DHT22;29781;49.480;8.512;2022-12-31T15:57:49;17.00;99.90
44117;DHT22;29781;49.480;8.512;2022-12-31T16:00:17;17.00;99.90
44117;DHT22;29781;49.480;8.512;2022-12-31T16:02:44;17.00;99.90
44117;DHT22;29781;49.480;8.512;2022-12-31T16:05:21;16.90;99.90
44117;DHT22;29781;49.480;8.512;2022-12-31T16:07:47;16.90;99.90
44117;DHT22;29781;49.480;8.512;2022-12-31T16:10:28;16.80;99.90
44117;DHT22;29781;49.480;8.512;2022-12-31T16:12:55;16.80;99.90
44117;DHT22;29781;49.480;8.512;2022-12-31T16:15:25;16.90;99.90
44117;DHT22;29781;49.480;8.512;2022-12-31T16:20:46;16.90;99.90
44117;DHT22;29781;49.480;8.512;2022-12-31T16:23:25;16.90;99.90
44117;DHT22;29781;49.480;8.512;2022-12-31T16:25:52;16.90;99.90
44117;DHT22;29781;49.480;8.512;2022-12-31T16:28:20;16.80;99.90
44117;DHT22;29781;49.480;8.512;2022-12-31T16:30:53;16.80;99.90
44117;DHT22;29781;49.480;8.512;2022-12-31T16:33:21;16.80;99.90
44117;DHT22;29781;49.480;8.512;2022-12-31T16:35:52;16.70;99.90
44117;DHT22;29781;49.480;8.512;2022-12-31T16:38:18;16.80;99.90
44117;DHT22;29781;49.480;8.512;2022-12-31T16:43:46;16.70;99.90
44117;DHT22;29781;49.480;8.512;2022-12-31T16:46:18;16.60;99.90
44117;DHT22;29781;49.480;8.512;2022-12-31T16:48:45;16.60;99.90
44117;DHT22;29781;49.480;8.512;2022-12-31T16:51:14;16.60;99.90
44117;DHT22;29781;49.480;8.512;2022-12-31T16:53:41;16.60;99.90
44117;DHT22;29781;49.480;8.512;2022-12-31T16:56:07;16.60;99.90
44117;DHT22;29781;49.480;8.512;2022-12-31T16:58:34;16.60;99.90
44117;DHT22;29781;49.480;8.512;2022-12-31T17:01:06;16.60;99.90
44117;DHT22;29781;49.480;8.512;2022-12-31T17:03:34;16.60;99.90
44117;DHT22;29781;49.480;8.512;2022-12-31T17:08:38;16.60;99.90
44117;DHT22;29781;49.480;8.512;2022-12-31T17:11:04;16.70;99.90
44117;DHT22;29781;49.480;8.512;2022-12-31T17:13:31;16.70;99.90
44117;DHT22;29781;49.480;8.512;2022-12-31T17:15:58;16.70;99.90
44117;DHT22;29781;49.480;8.512;2022-12-31T17:18:25;16.60;99.90
44117;DHT22;29781;49.480;8.512;2022-12-31T17:20:53;16.60;99.90
44117;DHT22;29781;49.480;8.512;2022-12-31T17:23:30;16.60;99.90
44117;DHT22;29781;49.480;8.512;2022-12-31T17:26:06;16.50;99.90
44117;DHT22;29781;49.480;8.512;2022-12-31T17:28:37;16.50;99.90
44117;DHT22;29781;49.480;8.512;2022-12-31T17:31:23;16.50;99.90
44117;DHT22;29781;49.480;8.512;2022-12-31T17:33:51;16.40;99.90
44117;DHT22;29781;49.480;8.512;2022-12-31T17:36:19;16.40;99.90
44117;DHT22;29781;49.480;8.512;2022-12-31T17:38:46;16.40;99.90
44117;DHT22;29781;49.480;8.512;2022-12-31T17:41:15;16.30;99.90
44117;DHT22;29781;49.480;8.512;2022-12-31T17:43:41;16.20;99.90
44117;DHT22;29781;49.480;8.512;2022-12-31T17:46:11;16.00;99.90
44117;DHT22;29781;49.480;8.512;2022-12-31T17:48:37;15.90;99.90
44117;DHT22;29781;49.480;8.512;2022-12-31T17:51:03;15.90;99.90
44117;DHT22;29781;49.480;8.512;2022-12-31T17:53:28;15.90;99.90
44117;DHT22;29781;49.480;8.512;2022-12-31T17:55:54;15.90;99.90
44117;DHT22;29781;49.480;8.512;2022-12-31T18:00:53;15.90;99.90
44117;DHT22;29781;49.480;8.512;2022-12-31T18:03:18;16.00;99.90
44117;DHT22;29781;49.480;8.512;2022-12-31T18:05:44;16.00;99.90
44117;DHT22;29781;49.480;8.512;2022-12-31T18:08:09;16.00;99.90
44117;DHT22;29781;49.480;8.512;2022-12-31T18:10:36;16.00;99.90
44117;DHT22;29781;49.480;8.512;2022-12-31T18:13:03;16.00;99.90
44117;DHT22;29781;49.480;8.512;2022-12-31T18:15:29;15.90;99.90
44117;DHT22;29781;49.480;8.512;2022-12-31T18:17:54;16.00;99.90
44117;DHT22;29781;49.480;8.512;2022-12-31T18:20:20;15.90;99.90
44117;DHT22;29781;49.480;8.512;2022-12-31T18:22:46;15.90;99.90
44117;DHT22;29781;49.480;8.512;2022-12-31T18:25:18;15.90;99.90
44117;DHT22;29781;49.480;8.512;2022-12-31T18:27:45;15.80;99.90
44117;DHT22;29781;49.480;8.512;2022-12-31T18:30:11;15.80;99.90
44117;DHT22;29781;49.480;8.512;2022-12-31T18:32:36;15.80;99.90
44117;DHT22;29781;49.480;8.512;2022-12-31T18:35:02;15.80;99.90
44117;DHT22;29781;49.480;8.512;2022-12-31T18:37:28;15.80;99.90
44117;DHT22;29781;49.480;8.512;2022-12-31T18:39:54;15.90;99.90
44117;DHT22;29781;49.480;8.512;2022-12-31T18:42:27;15.80;99.90
44117;DHT22;29781;49.480;8.512;2022-12-31T18:44:53;15.80;99.90
44117;DHT22;29781;49.480;8.512;2022-12-31T18:47:19;15.90;99.90
44117;DHT22;29781;49.480;8.512;2022-12-31T18:49:47;15.90;99.90
44117;DHT22;29781;49.480;8.512;2022-12-31T18:52:14;16.00;99.90
44117;DHT22;29781;49.480;8.512;2022-12-31T18:54:39;16.10;99.90
44117;DHT22;29781;49.480;8.512;2022-12-31T18:57:05;16.10;99.90
44117;DHT22;29781;49.480;8.512;2022-12-31T18:59:31;16.20;99.90
44117;DHT22;29781;49.480;8.512;2022-12-31T19:01:56;16.20;99.90
44117;DHT22;29781;49.480;8.512;2022-12-31T19:04:22;16.20;99.90
44117;DHT22;29781;49.480;8.512;2022-12-31T19:06:48;16.20;99.90
44117;DHT22;29781;49.480;8.512;2022-12-31T19:09:14;16.20;99.90
44117;DHT22;29781;49.480;8.512;2022-12-31T19:11:40;16.20;99.90
44117;DHT22;29781;49.480;8.512;2022-12-31T19:14:13;16.20;99.90
44117;DHT22;29781;49.480;8.512;2022-12-31T19:16:39;16.20;99.90
44117;DHT22;29781;49.480;8.512;2022-12-31T19:19:05;16.20;99.90
44117;DHT22;29781;49.480;8.512;2022-12-31T19:21:30;16.20;99.90
44117;DHT22;29781;49.480;8.512;2022-12-31T19:23:55;16.30;99.90
44117;DHT22;29781;49.480;8.512;2022-12-31T19:26:21;16.20;99.90
44117;DHT22;29781;49.480;8.512;2022-12-31T19:28:47;16.20;99.90
44117;DHT22;29781;49.480;8.512;2022-12-31T19:31:13;16.20;99.90
44117;DHT22;29781;49.480;8.512;2022-12-31T19:33:39;16.20;99.90
44117;DHT22;29781;49.480;8.512;2022-12-31T19:36:04;16.20;99.90
44117;DHT22;29781;49.480;8.512;2022-12-31T19:38:33;16.20;99.90
44117;DHT22;29781;49.480;8.512;2022-12-31T19:40:59;16.10;99.90
44117;DHT22;29781;49.480;8.512;2022-12-31T19:43:25;16.10;99.90
44117;DHT22;29781;49.480;8.512;2022-12-31T19:45:50;16.10;99.90
44117;DHT22;29781;49.480;8.512;2022-12-31T19:48:17;16.00;99.90
44117;DHT22;29781;49.480;8.512;2022-12-31T19:50:47;16.00;99.90
44117;DHT22;29781;49.480;8.512;2022-12-31T19:53:14;15.90;99.90
44117;DHT22;29781;49.480;8.512;2022-12-31T19:55:40;15.80;99.90
44117;DHT22;29781;49.480;8.512;2022-12-31T19:58:06;15.80;99.90
44117;DHT22;29781;49.480;8.512;2022-12-31T20:00:31;15.70;99.90
44117;DHT22;29781;49.480;8.512;2022-12-31T20:02:57;15.60;99.90